createdAt,value
2022-09-05T00:00:17.517Z,50.834854
2022-09-05T00:01:16.525Z,50.834850
2022-09-05T00:02:17.553Z,50.834835
2022-09-05T00:03:16.757Z,50.834820
2022-09-05T00:04:25.006Z,50.834843
2022-09-05T00:05:17.507Z,50.834881
2022-09-05T00:06:16.505Z,50.834816
2022-09-05T00:07:41.280Z,50.834820
2022-09-05T00:08:17.489Z,50.834839
2022-09-05T00:09:16.505Z,50.834843
2022-09-05T00:10:16.520Z,50.834846
2022-09-05T00:11:40.659Z,50.834831
2022-09-05T00:12:18.466Z,50.834831
2022-09-05T00:13:16.495Z,50.834827
2022-09-05T00:14:16.453Z,50.834835
2022-09-05T00:15:18.957Z,50.834824
2022-09-05T00:16:17.473Z,50.834812
2022-09-05T00:17:16.388Z,50.834797
2022-09-05T00:23:29.080Z,50.834808
2022-09-05T00:24:20.904Z,50.834797
2022-09-05T00:24:23.041Z,50.834808
2022-09-05T00:24:24.864Z,50.834862
2022-09-05T00:24:26.077Z,50.834835
2022-09-05T00:24:32.277Z,50.834820
2022-09-05T00:24:37.403Z,50.834839
2022-09-05T00:25:33.234Z,50.834812
2022-09-05T00:26:18.371Z,50.834839
2022-09-05T00:27:16.432Z,50.834827
2022-09-05T00:28:25.286Z,50.834839
2022-09-05T00:29:24.441Z,50.834854
2022-09-05T00:31:06.225Z,50.834858
2022-09-05T00:31:55.065Z,50.834812
2022-09-05T00:32:17.350Z,50.834831
2022-09-05T00:33:17.876Z,50.834850
2022-09-05T00:34:16.278Z,50.834846
2022-09-05T00:35:16.357Z,50.834869
2022-09-05T00:36:16.259Z,50.834854
2022-09-05T00:37:17.058Z,50.834843
2022-09-05T00:38:16.300Z,50.834850
2022-09-05T00:39:16.227Z,50.834824
2022-09-05T00:40:18.605Z,50.834824
2022-09-05T00:41:16.208Z,50.834846
2022-09-05T00:42:16.210Z,50.834831
2022-09-05T00:43:16.226Z,50.834854
2022-09-05T00:44:16.233Z,50.834850
2022-09-05T00:45:19.829Z,50.834827
2022-09-05T00:46:16.251Z,50.834820
2022-09-05T00:47:16.152Z,50.834824
2022-09-05T00:48:16.193Z,50.834808
2022-09-05T00:49:16.167Z,50.834797
2022-09-05T00:50:16.158Z,50.834797
2022-09-05T00:51:16.180Z,50.834816
2022-09-05T00:52:16.106Z,50.834839
2022-09-05T00:53:16.147Z,50.834843
2022-09-05T00:54:16.121Z,50.834827
2022-09-05T00:55:16.135Z,50.834820
2022-09-05T00:56:16.099Z,50.834820
2022-09-05T00:57:17.926Z,50.834820
2022-09-05T00:58:16.191Z,50.834839
2022-09-05T00:59:16.131Z,50.834858
2022-09-05T01:00:17.889Z,50.834846
2022-09-05T01:01:21.131Z,50.834846
2022-09-05T01:02:16.161Z,50.834827
2022-09-05T01:03:16.164Z,50.834831
2022-09-05T01:04:16.055Z,50.834824
2022-09-05T01:05:16.109Z,50.834820
2022-09-05T01:06:16.023Z,50.834846
2022-09-05T01:07:16.042Z,50.834866
2022-09-05T01:08:16.090Z,50.834827
2022-09-05T01:09:16.995Z,50.834843
2022-09-05T01:10:16.067Z,50.834827
2022-09-05T01:11:17.024Z,50.834869
2022-09-05T01:12:16.053Z,50.834858
2022-09-05T01:13:16.011Z,50.834816
2022-09-05T01:14:15.987Z,50.834881
2022-09-05T01:15:16.051Z,50.834839
2022-09-05T01:16:16.059Z,50.834846
2022-09-05T01:17:16.009Z,50.834824
2022-09-05T01:18:16.024Z,50.834816
2022-09-05T01:19:16.262Z,50.834839
2022-09-05T01:20:19.290Z,50.834827
2022-09-05T01:21:16.013Z,50.834812
2022-09-05T01:22:15.940Z,50.834785
2022-09-05T01:23:16.068Z,50.834808
2022-09-05T01:24:15.958Z,50.834835
2022-09-05T01:25:15.924Z,50.834885
2022-09-05T01:26:15.952Z,50.834835
2022-09-05T01:27:15.860Z,50.834816
2022-09-05T01:29:14.054Z,50.834831
2022-09-05T01:29:19.729Z,50.834805
2022-09-05T01:30:16.884Z,50.834812
2022-09-05T01:31:15.898Z,50.834827
2022-09-05T01:32:15.894Z,50.834808
2022-09-05T01:33:15.821Z,50.834827
2022-09-05T01:34:16.572Z,50.834846
2022-09-05T01:35:16.853Z,50.834820
2022-09-05T01:36:15.808Z,50.834812
2022-09-05T01:37:33.014Z,50.834835
2022-09-05T01:38:16.769Z,50.834854
2022-09-05T01:40:14.698Z,50.834850
2022-09-05T01:40:17.223Z,50.834835
2022-09-05T01:41:18.426Z,50.834866
2022-09-05T01:42:16.716Z,50.834869
2022-09-05T01:43:15.748Z,50.834858
2022-09-05T01:44:15.755Z,50.834835
2022-09-05T02:04:39.680Z,50.834816
2022-09-05T02:05:48.675Z,50.834793
2022-09-05T02:06:43.918Z,50.834801
2022-09-05T02:07:39.660Z,50.834793
2022-09-05T02:08:39.592Z,50.834808
2022-09-05T02:09:39.603Z,50.834801
2022-09-05T02:10:39.603Z,50.834812
2022-09-05T02:11:39.606Z,50.834812
2022-09-05T02:12:39.615Z,50.834816
2022-09-05T02:13:39.597Z,50.834824
2022-09-05T02:14:39.601Z,50.834827
2022-09-05T02:16:13.742Z,50.834820
2022-09-05T02:16:39.589Z,50.834816
2022-09-05T02:17:51.023Z,50.834805
2022-09-05T02:18:40.533Z,50.834816
2022-09-05T02:19:39.534Z,50.834801
2022-09-05T02:20:39.533Z,50.834816
2022-09-05T02:21:55.663Z,50.834805
2022-09-05T02:22:40.492Z,50.834827
2022-09-05T02:23:41.898Z,50.834816
2022-09-05T02:24:39.547Z,50.834820
2022-09-05T02:26:01.197Z,50.834808
2022-09-05T02:26:40.535Z,50.834824
2022-09-05T02:28:04.310Z,50.834824
2022-09-05T02:28:40.489Z,50.834820
2022-09-05T02:29:39.462Z,50.834801
2022-09-05T02:30:48.456Z,50.834820
2022-09-05T02:31:40.551Z,50.834824
2022-09-05T02:32:43.100Z,50.834797
2022-09-05T02:33:39.431Z,50.834805
2022-09-05T02:34:39.429Z,50.834805
2022-09-05T02:35:39.428Z,50.834789
2022-09-05T02:36:39.430Z,50.834812
2022-09-05T02:38:19.939Z,50.834820
2022-09-05T02:44:16.916Z,50.834835
2022-09-05T02:45:08.639Z,50.834812
2022-09-05T02:45:13.411Z,50.834831
2022-09-05T02:45:14.211Z,50.834816
2022-09-05T02:45:18.371Z,50.834820
2022-09-05T02:45:18.590Z,50.834816
2022-09-05T02:45:19.430Z,50.834801
2022-09-05T02:45:40.433Z,50.834816
2022-09-05T02:46:39.505Z,50.834793
2022-09-05T02:47:39.320Z,50.834808
2022-09-05T02:48:39.331Z,50.834812
2022-09-05T02:52:21.287Z,50.834820
2022-09-05T02:55:14.959Z,50.834808
2022-09-05T02:57:24.772Z,50.834824
2022-09-05T02:57:38.162Z,50.834801
2022-09-05T02:57:38.993Z,50.834820
2022-09-05T02:57:43.480Z,50.834827
2022-09-05T02:57:46.832Z,50.834827
2022-09-05T02:58:05.478Z,50.834820
2022-09-05T02:58:05.874Z,50.834812
2022-09-05T02:59:08.040Z,50.834812
2022-09-05T02:59:41.228Z,50.834789
2022-09-05T03:00:40.192Z,50.834801
2022-09-05T03:01:39.305Z,50.834816
2022-09-05T03:02:39.260Z,50.834805
2022-09-05T03:03:39.422Z,50.834805
2022-09-05T03:04:39.195Z,50.834801
2022-09-05T03:05:39.207Z,50.834801
2022-09-05T03:06:39.230Z,50.834820
2022-09-05T03:07:39.216Z,50.834812
2022-09-05T03:08:39.169Z,50.834801
2022-09-05T03:09:39.187Z,50.834789
2022-09-05T03:10:54.469Z,50.834801
2022-09-05T03:11:40.155Z,50.834797
2022-09-05T03:12:39.210Z,50.834812
2022-09-05T03:13:50.140Z,50.834797
2022-09-05T03:14:40.162Z,50.834808
2022-09-05T03:15:39.169Z,50.834808
2022-09-05T03:16:47.348Z,50.834797
2022-09-05T03:17:40.106Z,50.834805
2022-09-05T03:18:39.124Z,50.834816
2022-09-05T03:19:46.114Z,50.834820
2022-09-05T03:20:40.100Z,50.834789
2022-09-05T03:21:39.063Z,50.834782
2022-09-05T03:22:39.109Z,50.834812
2022-09-05T03:23:39.062Z,50.834820
2022-09-05T03:24:39.082Z,50.834801
2022-09-05T03:25:39.067Z,50.834805
2022-09-05T03:26:39.064Z,50.834805
2022-09-05T03:27:39.052Z,50.834812
2022-09-05T03:28:39.817Z,50.834805
2022-09-05T03:29:39.015Z,50.834812
2022-09-05T03:30:39.094Z,50.834808
2022-09-05T03:31:38.995Z,50.834808
2022-09-05T03:32:40.243Z,50.834797
2022-09-05T03:33:38.967Z,50.834793
2022-09-05T03:34:38.988Z,50.834789
2022-09-05T03:35:39.955Z,50.834801
2022-09-05T03:36:38.973Z,50.834801
2022-09-05T03:37:38.958Z,50.834801
2022-09-05T03:38:38.951Z,50.834801
2022-09-05T03:39:39.040Z,50.834812
2022-09-05T03:40:38.941Z,50.834797
2022-09-05T03:41:40.610Z,50.834805
2022-09-05T03:42:38.944Z,50.834797
2022-09-05T03:43:38.900Z,50.834808
2022-09-05T03:44:38.885Z,50.834808
2022-09-05T03:45:38.882Z,50.834801
2022-09-05T03:46:38.914Z,50.834812
2022-09-05T04:08:10.906Z,50.834805
2022-09-05T04:08:17.538Z,50.834770
2022-09-05T04:08:17.883Z,50.834774
2022-09-05T04:08:28.964Z,50.834778
2022-09-05T04:08:41.288Z,50.834778
2022-09-05T04:09:49.999Z,50.834759
2022-09-05T04:10:31.902Z,50.834740
2022-09-05T04:11:29.802Z,50.834740
2022-09-05T04:12:29.796Z,50.834740
2022-09-05T04:13:29.802Z,50.834782
2022-09-05T04:14:29.801Z,50.834763
2022-09-05T04:15:29.768Z,50.834778
2022-09-05T04:16:29.817Z,50.834763
2022-09-05T04:17:30.755Z,50.834789
2022-09-05T04:18:32.794Z,50.834774
2022-09-05T04:19:29.748Z,50.834782
2022-09-05T04:20:29.768Z,50.834789
2022-09-05T04:21:29.754Z,50.834774
2022-09-05T04:22:29.775Z,50.834785
2022-09-05T04:23:29.752Z,50.834797
2022-09-05T04:24:29.741Z,50.834785
2022-09-05T04:25:29.693Z,50.834789
2022-09-05T04:26:29.713Z,50.834785
2022-09-05T04:27:29.682Z,50.834793
2022-09-05T04:28:29.695Z,50.834808
2022-09-05T04:29:29.714Z,50.834785
2022-09-05T04:30:39.007Z,50.834797
2022-09-05T04:31:30.735Z,50.834808
2022-09-05T04:32:29.670Z,50.834805
2022-09-05T04:33:36.208Z,50.834805
2022-09-05T04:34:30.660Z,50.834793
2022-09-05T04:35:29.644Z,50.834774
2022-09-05T04:36:29.628Z,50.834778
2022-09-05T04:37:29.600Z,50.834785
2022-09-05T04:38:30.602Z,50.834782
2022-09-05T04:39:29.710Z,50.834755
2022-09-05T04:40:32.765Z,50.834774
2022-09-05T04:41:39.320Z,50.834782
2022-09-05T04:42:30.558Z,50.834793
2022-09-05T04:43:29.551Z,50.834785
2022-09-05T04:44:30.606Z,50.834797
2022-09-05T04:45:29.711Z,50.834801
2022-09-05T04:46:29.624Z,50.834793
2022-09-05T04:47:29.601Z,50.834782
2022-09-05T04:48:30.283Z,50.834797
2022-09-05T04:49:29.553Z,50.834789
2022-09-05T04:50:37.205Z,50.834805
2022-09-05T04:51:32.373Z,50.834808
2022-09-05T04:52:32.283Z,50.834805
2022-09-05T04:53:29.544Z,50.834812
2022-09-05T04:54:30.087Z,50.834785
2022-09-05T04:55:30.551Z,50.834820
2022-09-05T04:56:29.554Z,50.834831
2022-09-05T04:57:29.592Z,50.834801
2022-09-05T04:58:42.050Z,50.834812
2022-09-05T05:01:58.948Z,50.834805
2022-09-05T05:05:59.853Z,50.834812
2022-09-05T05:06:04.286Z,50.834816
2022-09-05T05:06:10.664Z,50.834820
2022-09-05T05:06:12.234Z,50.834820
2022-09-05T05:06:13.727Z,50.834793
2022-09-05T05:06:14.659Z,50.834831
2022-09-05T05:06:44.042Z,50.834808
2022-09-05T05:07:31.548Z,50.834816
2022-09-05T05:08:39.095Z,50.834808
2022-09-05T05:09:30.415Z,50.834808
2022-09-05T05:11:51.133Z,50.834839
2022-09-05T05:18:00.473Z,50.834820
2022-09-05T05:18:00.927Z,50.834812
2022-09-05T05:18:03.432Z,50.834808
2022-09-05T05:18:10.386Z,50.834831
2022-09-05T05:18:14.074Z,50.834824
2022-09-05T05:18:14.829Z,50.834820
2022-09-05T05:18:16.107Z,50.834835
2022-09-05T05:18:39.509Z,50.834820
2022-09-05T05:19:30.363Z,50.834808
2022-09-05T05:20:42.384Z,50.834816
2022-09-05T05:21:30.276Z,50.834793
2022-09-05T05:22:29.274Z,50.834808
2022-09-05T05:23:29.238Z,50.834812
2022-09-05T05:24:29.241Z,50.834801
2022-09-05T05:25:29.246Z,50.834808
2022-09-05T05:26:29.247Z,50.834824
2022-09-05T05:27:29.215Z,50.834812
2022-09-05T05:28:29.243Z,50.834797
2022-09-05T05:29:29.241Z,50.834816
2022-09-05T05:30:29.190Z,50.834808
2022-09-05T05:31:29.215Z,50.834812
2022-09-05T05:32:45.854Z,50.834793
2022-09-05T05:33:30.280Z,50.834805
2022-09-05T05:34:29.211Z,50.834816
2022-09-05T05:35:29.192Z,50.834812
2022-09-05T05:36:29.187Z,50.834805
2022-09-05T05:37:29.135Z,50.834797
2022-09-05T05:38:29.178Z,50.834789
2022-09-05T05:39:29.206Z,50.834789
2022-09-05T05:40:29.153Z,50.834812
2022-09-05T05:41:29.137Z,50.834816
2022-09-05T05:42:29.147Z,50.834812
2022-09-05T05:43:29.110Z,50.834824
2022-09-05T05:44:29.084Z,50.834816
2022-09-05T05:45:29.091Z,50.834862
2022-09-05T05:46:29.159Z,50.834843
2022-09-05T05:47:32.150Z,50.834869
2022-09-05T05:48:29.075Z,50.834862
2022-09-05T05:49:29.069Z,50.834846
2022-09-05T05:50:29.079Z,50.834824
2022-09-05T05:51:44.087Z,50.834839
2022-09-05T05:52:30.046Z,50.834812
2022-09-05T05:53:42.422Z,50.834827
2022-09-05T05:54:30.039Z,50.834869
2022-09-05T05:55:51.695Z,50.834854
2022-09-05T05:56:30.200Z,50.834858
2022-09-05T05:57:29.006Z,50.834858
2022-09-05T05:58:29.339Z,50.834831
2022-09-05T05:59:28.967Z,50.834850
2022-09-05T06:00:30.142Z,50.834843
2022-09-05T06:01:38.100Z,50.834831
2022-09-05T06:02:30.094Z,50.834843
2022-09-05T06:03:29.042Z,50.834843
2022-09-05T06:04:28.989Z,50.834816
2022-09-05T06:05:28.967Z,50.834862
2022-09-05T06:06:28.946Z,50.834858
2022-09-05T06:07:28.979Z,50.834843
2022-09-05T06:10:06.514Z,50.834846
2022-09-05T06:12:53.617Z,50.834854
2022-09-05T06:14:50.284Z,50.834843
2022-09-05T06:14:55.863Z,50.834835
2022-09-05T06:14:55.982Z,50.834866
2022-09-05T06:14:56.700Z,50.834869
2022-09-05T06:14:57.750Z,50.834850
2022-09-05T06:15:30.500Z,50.834854
2022-09-05T06:16:28.930Z,50.834839
2022-09-05T06:17:28.878Z,50.834820
2022-09-05T06:18:28.868Z,50.834820
2022-09-05T06:19:43.605Z,50.834820
2022-09-05T06:22:07.805Z,50.834816
2022-09-05T06:22:08.301Z,50.834820
2022-09-05T06:22:29.798Z,50.834827
2022-09-05T06:23:39.311Z,50.834801
2022-09-05T06:24:29.860Z,50.834801
2022-09-05T06:25:28.808Z,50.834812
2022-09-05T06:26:28.807Z,50.834824
2022-09-05T06:27:28.754Z,50.834805
2022-09-05T06:28:28.786Z,50.834801
2022-09-05T06:29:34.627Z,50.834812
2022-09-05T06:30:31.089Z,50.834812
2022-09-05T06:31:29.883Z,50.834812
2022-09-05T06:32:28.937Z,50.834820
2022-09-05T06:33:28.778Z,50.834824
2022-09-05T06:34:35.867Z,50.834816
2022-09-05T06:35:29.718Z,50.834820
2022-09-05T06:36:28.730Z,50.834820
2022-09-05T06:37:28.730Z,50.834805
2022-09-05T06:38:28.704Z,50.834805
2022-09-05T06:39:28.778Z,50.834793
2022-09-05T06:40:32.045Z,50.834801
2022-09-05T06:41:29.755Z,50.834816
2022-09-05T06:42:42.812Z,50.834831
2022-09-05T06:43:29.702Z,50.834816
2022-09-05T06:44:28.686Z,50.834808
2022-09-05T06:45:28.994Z,50.834812
2022-09-05T06:46:50.597Z,50.834805
2022-09-05T06:47:33.960Z,50.834805
2022-09-05T06:48:44.149Z,50.834816
2022-09-05T06:49:37.291Z,50.834812
2022-09-05T06:50:29.710Z,50.834816
2022-09-05T06:51:29.638Z,50.834816
2022-09-05T06:52:30.407Z,50.834824
2022-09-05T06:53:28.582Z,50.834824
2022-09-05T06:54:28.619Z,50.834816
2022-09-05T06:55:28.587Z,50.834808
2022-09-05T06:56:28.550Z,50.834820
2022-09-05T06:57:28.572Z,50.834816
2022-09-05T06:58:28.611Z,50.834805
2022-09-05T06:59:28.583Z,50.834801
2022-09-05T07:00:28.640Z,50.834824
2022-09-05T07:01:55.204Z,50.834805
2022-09-05T07:02:59.439Z,50.834816
2022-09-05T07:03:29.771Z,50.834824
2022-09-05T07:05:21.766Z,50.834824
2022-09-05T07:05:38.680Z,50.834812
2022-09-05T07:06:59.339Z,50.834812
2022-09-05T07:07:29.508Z,50.834816
2022-09-05T07:08:35.965Z,50.834797
2022-09-05T07:09:29.478Z,50.834808
2022-09-05T07:10:38.312Z,50.834808
2022-09-05T07:11:30.486Z,50.834793
2022-09-05T07:12:30.184Z,50.834808
2022-09-05T07:13:29.083Z,50.834797
2022-09-05T07:14:29.452Z,50.834793
2022-09-05T07:15:28.434Z,50.834808
2022-09-05T07:16:37.468Z,50.834793
2022-09-05T07:17:29.399Z,50.834793
2022-09-05T07:18:30.008Z,50.834789
2022-09-05T07:19:28.420Z,50.834801
2022-09-05T07:20:28.567Z,50.834801
2022-09-05T07:21:28.399Z,50.834808
2022-09-05T07:22:47.925Z,50.834820
2022-09-05T07:23:52.740Z,50.834816
2022-09-05T07:24:53.499Z,50.834816
2022-09-05T07:25:31.630Z,50.834816
2022-09-05T07:26:29.360Z,50.834827
2022-09-05T07:27:29.350Z,50.834824
2022-09-05T07:28:30.517Z,50.834816
2022-09-05T07:29:28.322Z,50.834824
2022-09-05T07:30:28.348Z,50.834808
2022-09-05T07:31:37.922Z,50.834820
2022-09-05T07:32:29.313Z,50.834812
2022-09-05T07:33:28.433Z,50.834805
2022-09-05T07:34:28.281Z,50.834789
2022-09-05T07:35:28.274Z,50.834812
2022-09-05T07:36:28.293Z,50.834808
2022-09-05T07:37:28.351Z,50.834801
2022-09-05T07:38:48.345Z,50.834805
2022-09-05T07:39:29.648Z,50.834797
2022-09-05T07:40:29.369Z,50.834785
2022-09-05T07:41:28.282Z,50.834789
2022-09-05T07:42:28.247Z,50.834797
2022-09-05T07:43:28.352Z,50.834820
2022-09-05T07:44:28.281Z,50.834816
2022-09-05T07:45:28.248Z,50.834801
2022-09-05T07:46:28.220Z,50.834805
2022-09-05T07:47:28.225Z,50.834789
2022-09-05T07:48:35.053Z,50.834789
2022-09-05T07:49:31.118Z,50.834782
2022-09-05T07:52:32.563Z,50.834785
2022-09-05T07:55:26.246Z,50.834805
2022-09-05T07:56:49.701Z,50.834808
2022-09-05T07:56:58.765Z,50.834785
2022-09-05T07:57:04.794Z,50.834778
2022-09-05T07:57:06.157Z,50.834824
2022-09-05T07:57:10.790Z,50.834789
2022-09-05T07:57:31.689Z,50.834782
2022-09-05T07:58:29.123Z,50.834782
2022-09-05T07:59:28.173Z,50.834789
2022-09-05T08:00:29.676Z,50.834763
2022-09-05T08:01:28.190Z,50.834778
2022-09-05T08:02:28.122Z,50.834774
2022-09-05T08:03:28.073Z,50.834774
2022-09-05T08:04:28.066Z,50.834770
2022-09-05T08:05:35.199Z,50.834766
2022-09-05T08:07:45.859Z,50.834770
2022-09-05T08:07:48.854Z,50.834774
2022-09-05T08:08:29.103Z,50.834774
2022-09-05T08:10:09.204Z,50.834774
2022-09-05T08:10:31.435Z,50.834766
2022-09-05T08:11:29.027Z,50.834782
2022-09-05T08:12:28.411Z,50.834785
2022-09-05T08:13:28.925Z,50.834755
2022-09-05T08:14:45.269Z,50.834778
2022-09-05T08:16:10.379Z,50.834763
2022-09-05T08:16:29.967Z,50.834759
2022-09-05T08:17:30.140Z,50.834766
2022-09-05T08:18:28.546Z,50.834774
2022-09-05T08:19:27.979Z,50.834778
2022-09-05T08:20:27.999Z,50.834766
2022-09-05T08:21:28.094Z,50.834770
2022-09-05T08:22:27.962Z,50.834766
2022-09-05T08:23:27.911Z,50.834759
2022-09-05T08:24:28.948Z,50.834774
2022-09-05T08:25:37.587Z,50.834789
2022-09-05T08:26:29.546Z,50.834782
2022-09-05T08:27:28.546Z,50.834793
2022-09-05T08:28:39.290Z,50.834805
2022-09-05T08:29:28.925Z,50.834797
2022-09-05T08:30:28.168Z,50.834782
2022-09-05T08:31:28.956Z,50.834782
2022-09-05T08:32:32.130Z,50.834763
2022-09-05T08:33:28.841Z,50.834785
2022-09-05T08:34:31.510Z,50.834782
2022-09-05T08:35:28.880Z,50.834770
2022-09-05T08:36:27.822Z,50.834766
2022-09-05T08:37:27.858Z,50.834759
2022-09-05T08:38:27.843Z,50.834766
2022-09-05T08:39:28.902Z,50.834782
2022-09-05T08:40:27.902Z,50.834778
2022-09-05T08:41:50.403Z,50.834766
2022-09-05T08:42:28.875Z,50.834770
2022-09-05T08:46:35.412Z,50.834759
2022-09-05T08:46:40.343Z,50.834766
2022-09-05T08:46:40.903Z,50.834770
2022-09-05T08:46:44.583Z,50.834763
2022-09-05T08:47:31.923Z,50.834770
2022-09-05T08:48:28.831Z,50.834766
2022-09-05T08:49:37.035Z,50.834770
2022-09-05T08:50:28.872Z,50.834770
2022-09-05T08:51:27.799Z,50.834774
2022-09-05T08:52:27.742Z,50.834766
2022-09-05T08:53:45.903Z,50.834763
2022-09-05T08:54:28.812Z,50.834751
2022-09-05T08:55:27.725Z,50.834763
2022-09-05T08:56:27.743Z,50.834774
2022-09-05T08:57:27.738Z,50.834759
2022-09-05T08:58:27.719Z,50.834763
2022-09-05T08:59:33.045Z,50.834774
2022-09-05T09:00:31.411Z,50.834770
2022-09-05T09:01:27.698Z,50.834770
2022-09-05T09:02:47.646Z,50.834770
2022-09-05T09:03:28.789Z,50.834789
2022-09-05T09:05:01.629Z,50.834785
2022-09-05T09:06:12.290Z,50.834766
2022-09-05T09:06:28.625Z,50.834770
2022-09-05T09:07:47.971Z,50.834774
2022-09-05T09:08:28.652Z,50.834759
2022-09-05T09:09:27.694Z,50.834774
2022-09-05T09:10:27.681Z,50.834778
2022-09-05T09:11:27.641Z,50.834778
2022-09-05T09:12:27.850Z,50.834789
2022-09-05T09:13:28.111Z,50.834774
2022-09-05T09:14:30.593Z,50.834778
2022-09-05T09:15:27.607Z,50.834801
2022-09-05T09:16:28.610Z,50.834785
2022-09-05T09:17:29.297Z,50.834782
2022-09-05T09:18:27.574Z,50.834782
2022-09-05T09:19:29.030Z,50.834782
2022-09-05T09:20:27.646Z,50.834770
2022-09-05T09:21:27.627Z,50.834793
2022-09-05T09:22:28.616Z,50.834831
2022-09-05T09:23:31.915Z,50.834835
2022-09-05T09:24:27.603Z,50.834824
2022-09-05T09:25:30.641Z,50.834827
2022-09-05T09:26:28.551Z,50.834820
2022-09-05T09:27:36.427Z,50.834843
2022-09-05T09:28:49.488Z,50.834808
2022-09-05T09:29:28.510Z,50.834808
2022-09-05T09:30:27.554Z,50.834782
2022-09-05T09:31:27.585Z,50.834785
2022-09-05T09:32:27.497Z,50.834785
2022-09-05T09:33:27.563Z,50.834774
2022-09-05T09:34:27.529Z,50.834801
2022-09-05T09:35:27.509Z,50.834797
2022-09-05T09:36:27.495Z,50.834793
2022-09-05T09:37:35.578Z,50.834782
2022-09-05T09:38:28.460Z,50.834808
2022-09-05T09:39:39.204Z,50.834789
2022-09-05T09:40:28.437Z,50.834785
2022-09-05T09:41:27.473Z,50.834793
2022-09-05T09:42:33.062Z,50.834789
2022-09-05T09:43:28.444Z,50.834789
2022-09-05T09:44:27.493Z,50.834770
2022-09-05T09:45:28.963Z,50.834774
2022-09-05T09:46:27.479Z,50.834797
2022-09-05T09:47:27.422Z,50.834778
2022-09-05T09:48:27.398Z,50.834774
2022-09-05T09:49:27.404Z,50.834782
2022-09-05T09:50:27.375Z,50.834778
2022-09-05T09:51:27.422Z,50.834759
2022-09-05T09:52:27.401Z,50.834766
2022-09-05T09:53:27.352Z,50.834801
2022-09-05T09:54:27.376Z,50.834805
2022-09-05T09:55:27.337Z,50.834820
2022-09-05T09:56:27.349Z,50.834827
2022-09-05T09:57:27.340Z,50.834797
2022-09-05T09:58:29.188Z,50.834797
2022-09-05T09:59:27.335Z,50.834797
2022-09-05T10:00:27.305Z,50.834812
2022-09-05T10:01:36.043Z,50.834820
2022-09-05T10:04:57.930Z,50.834801
2022-09-05T10:10:04.376Z,50.834789
2022-09-05T10:10:39.559Z,50.834808
2022-09-05T10:10:44.211Z,50.834808
2022-09-05T10:10:45.153Z,50.834812
2022-09-05T10:10:45.890Z,50.834824
2022-09-05T10:10:48.844Z,50.834816
2022-09-05T10:10:57.332Z,50.834812
2022-09-05T10:10:57.644Z,50.834824
2022-09-05T10:12:29.309Z,50.834808
2022-09-05T10:13:27.459Z,50.834797
2022-09-05T10:14:47.832Z,50.834797
2022-09-05T10:15:31.648Z,50.834793
2022-09-05T10:16:27.317Z,50.834820
2022-09-05T10:17:27.205Z,50.834816
2022-09-05T10:18:27.207Z,50.834808
2022-09-05T10:20:29.641Z,50.834808
2022-09-05T10:21:28.167Z,50.834820
2022-09-05T10:22:36.534Z,50.834816
2022-09-05T10:23:29.161Z,50.834835
2022-09-05T10:24:27.245Z,50.834831
2022-09-05T10:25:28.052Z,50.834816
2022-09-05T10:26:27.518Z,50.834808
2022-09-05T10:27:27.139Z,50.834812
2022-09-05T10:28:27.163Z,50.834816
2022-09-05T10:29:36.532Z,50.834801
2022-09-05T10:31:09.582Z,50.834805
2022-09-05T10:33:02.434Z,50.834793
2022-09-05T10:35:07.489Z,50.834831
2022-09-05T10:35:16.769Z,50.834862
2022-09-05T10:35:16.836Z,50.834827
2022-09-05T10:35:28.447Z,50.834835
2022-09-05T10:36:27.160Z,50.834827
2022-09-05T10:37:27.077Z,50.834824
2022-09-05T10:38:27.122Z,50.834816
2022-09-05T10:39:27.171Z,50.834812
2022-09-05T10:40:27.077Z,50.834805
2022-09-05T10:41:27.054Z,50.834801
2022-09-05T10:42:27.072Z,50.834816
2022-09-05T10:43:27.070Z,50.834820
2022-09-05T10:44:27.115Z,50.834839
2022-09-05T10:45:31.362Z,50.834835
2022-09-05T10:46:49.410Z,50.834846
2022-09-05T10:47:29.042Z,50.834846
2022-09-05T10:48:27.026Z,50.834831
2022-09-05T10:49:30.493Z,50.834846
2022-09-05T10:50:27.058Z,50.834839
2022-09-05T10:51:28.269Z,50.834820
2022-09-05T10:52:27.020Z,50.834820
2022-09-05T10:53:27.042Z,50.834805
2022-09-05T10:54:28.059Z,50.834831
2022-09-05T10:55:26.991Z,50.834824
2022-09-05T10:56:28.623Z,50.834846
2022-09-05T10:57:26.918Z,50.834843
2022-09-05T10:58:40.361Z,50.834827
2022-09-05T11:01:19.350Z,50.834839
2022-09-05T11:02:16.496Z,50.834850
2022-09-05T11:02:30.041Z,50.834835
2022-09-05T11:02:33.593Z,50.834835
2022-09-05T11:03:29.286Z,50.834820
2022-09-05T11:04:26.976Z,50.834805
2022-09-05T11:05:27.493Z,50.834816
2022-09-05T11:06:26.914Z,50.834831
2022-09-05T11:07:29.804Z,50.834816
2022-09-05T11:08:26.855Z,50.834820
2022-09-05T11:09:26.833Z,50.834831
2022-09-05T11:10:26.833Z,50.834808
2022-09-05T11:11:34.068Z,50.834793
2022-09-05T11:12:27.849Z,50.834797
2022-09-05T11:13:27.018Z,50.834824
2022-09-05T11:14:27.399Z,50.834820
2022-09-05T11:15:26.793Z,50.834824
2022-09-05T11:16:26.858Z,50.834824
2022-09-05T11:17:26.780Z,50.834808
2022-09-05T11:18:27.121Z,50.834820
2022-09-05T11:19:27.839Z,50.834816
2022-09-05T11:20:34.959Z,50.834820
2022-09-05T11:21:27.806Z,50.834820
2022-09-05T11:22:26.735Z,50.834824
2022-09-05T11:23:26.776Z,50.834839
2022-09-05T11:24:27.665Z,50.834831
2022-09-05T11:25:39.681Z,50.834835
2022-09-05T11:26:27.723Z,50.834839
2022-09-05T11:27:26.723Z,50.834831
2022-09-05T11:28:27.025Z,50.834820
2022-09-05T11:29:26.705Z,50.834812
2022-09-05T11:30:29.938Z,50.834812
2022-09-05T11:31:34.080Z,50.834808
2022-09-05T11:37:44.384Z,50.834801
2022-09-05T11:39:46.814Z,50.834812
2022-09-05T11:39:50.616Z,50.834808
2022-09-05T11:39:51.297Z,50.834820
2022-09-05T11:40:00.115Z,50.834816
2022-09-05T11:40:06.455Z,50.834812
2022-09-05T11:40:09.797Z,50.834805
2022-09-05T11:40:10.549Z,50.834816
2022-09-05T11:41:29.588Z,50.834820
2022-09-05T11:42:26.607Z,50.834820
2022-09-05T11:43:26.609Z,50.834824
2022-09-05T11:44:27.396Z,50.834816
2022-09-05T11:45:27.589Z,50.834816
2022-09-05T11:46:27.833Z,50.834820
2022-09-05T11:47:30.285Z,50.834816
2022-09-05T11:48:27.547Z,50.834808
2022-09-05T11:49:26.576Z,50.834793
2022-09-05T11:50:26.527Z,50.834793
2022-09-05T11:51:33.874Z,50.834805
2022-09-05T11:52:27.546Z,50.834785
2022-09-05T11:53:26.518Z,50.834797
2022-09-05T11:54:26.550Z,50.834785
2022-09-05T11:55:26.515Z,50.834793
2022-09-05T11:56:28.850Z,50.834785
2022-09-05T11:57:33.143Z,50.834785
2022-09-05T11:58:43.492Z,50.834763
2022-09-05T11:59:33.511Z,50.834782
2022-09-05T12:00:31.372Z,50.834816
2022-09-05T12:01:43.047Z,50.834797
2022-09-05T12:02:27.552Z,50.834782
2022-09-05T12:03:57.287Z,50.834766